sensor_id;sensor_type;location;lat;lon;timestamp;P1;durP1;ratioP1;P2;durP2;ratioP2
757;SDS011;363;48.764;9.172;2022-08-04T00:00:56;3.53;;;3.23;;
757;SDS011;363;48.764;9.172;2022-08-04T00:03:54;3.27;;;3.07;;
757;SDS011;363;48.764;9.172;2022-08-04T00:06:33;3.43;;;3.13;;
757;SDS011;363;48.764;9.172;2022-08-04T00:09:29;3.30;;;3.10;;
757;SDS011;363;48.764;9.172;2022-08-04T00:11:56;3.67;;;2.60;;
757;SDS011;363;48.764;9.172;2022-08-04T00:14:25;4.70;;;3.20;;
757;SDS011;363;48.764;9.172;2022-08-04T00:16:55;3.27;;;2.90;;
757;SDS011;363;48.764;9.172;2022-08-04T00:19:27;2.90;;;2.70;;
757;SDS011;363;48.764;9.172;2022-08-04T00:21:59;3.13;;;2.90;;
757;SDS011;363;48.764;9.172;2022-08-04T00:24:28;3.17;;;2.90;;
757;SDS011;363;48.764;9.172;2022-08-04T00:26:55;3.43;;;3.03;;
757;SDS011;363;48.764;9.172;2022-08-04T00:29:21;3.20;;;2.90;;
757;SDS011;363;48.764;9.172;2022-08-04T00:31:48;5.60;;;2.97;;
757;SDS011;363;48.764;9.172;2022-08-04T00:34:14;3.23;;;2.93;;
757;SDS011;363;48.764;9.172;2022-08-04T00:36:41;3.23;;;2.83;;
757;SDS011;363;48.764;9.172;2022-08-04T00:39:11;3.00;;;2.80;;
757;SDS011;363;48.764;9.172;2022-08-04T00:47:03;3.40;;;3.13;;
757;SDS011;363;48.764;9.172;2022-08-04T00:49:55;3.70;;;2.90;;
757;SDS011;363;48.764;9.172;2022-08-04T01:00:44;3.67;;;3.07;;
757;SDS011;363;48.764;9.172;2022-08-04T01:06:08;3.20;;;2.90;;
757;SDS011;363;48.764;9.172;2022-08-04T01:17:18;3.50;;;3.20;;
757;SDS011;363;48.764;9.172;2022-08-04T01:20:05;4.10;;;3.13;;
757;SDS011;363;48.764;9.172;2022-08-04T01:22:44;3.73;;;3.20;;
757;SDS011;363;48.764;9.172;2022-08-04T01:25:36;3.03;;;2.83;;
757;SDS011;363;48.764;9.172;2022-08-04T01:31:00;3.80;;;3.50;;
757;SDS011;363;48.764;9.172;2022-08-04T01:33:31;3.27;;;2.97;;
757;SDS011;363;48.764;9.172;2022-08-04T01:36:03;3.50;;;3.10;;
757;SDS011;363;48.764;9.172;2022-08-04T01:38:33;4.43;;;3.13;;
757;SDS011;363;48.764;9.172;2022-08-04T01:41:12;4.53;;;3.63;;
757;SDS011;363;48.764;9.172;2022-08-04T01:43:42;3.50;;;2.70;;
757;SDS011;363;48.764;9.172;2022-08-04T01:46:10;3.23;;;3.00;;
757;SDS011;363;48.764;9.172;2022-08-04T01:48:38;3.07;;;2.80;;
757;SDS011;363;48.764;9.172;2022-08-04T01:51:05;4.57;;;3.60;;
757;SDS011;363;48.764;9.172;2022-08-04T01:53:33;3.33;;;3.03;;
757;SDS011;363;48.764;9.172;2022-08-04T01:56:04;3.63;;;3.40;;
757;SDS011;363;48.764;9.172;2022-08-04T01:58:31;3.17;;;2.97;;
757;SDS011;363;48.764;9.172;2022-08-04T02:01:02;3.60;;;3.20;;
757;SDS011;363;48.764;9.172;2022-08-04T02:03:30;3.30;;;3.00;;
757;SDS011;363;48.764;9.172;2022-08-04T02:06:08;3.20;;;2.80;;
757;SDS011;363;48.764;9.172;2022-08-04T02:08:45;3.30;;;3.00;;
757;SDS011;363;48.764;9.172;2022-08-04T02:11:15;3.23;;;3.03;;
757;SDS011;363;48.764;9.172;2022-08-04T02:13:53;3.60;;;3.13;;
757;SDS011;363;48.764;9.172;2022-08-04T02:21:46;3.63;;;2.83;;
757;SDS011;363;48.764;9.172;2022-08-04T02:24:15;4.60;;;3.00;;
757;SDS011;363;48.764;9.172;2022-08-04T02:26:46;2.95;;;2.75;;
757;SDS011;363;48.764;9.172;2022-08-04T02:29:24;3.57;;;3.27;;
757;SDS011;363;48.764;9.172;2022-08-04T02:32:06;4.10;;;3.70;;
757;SDS011;363;48.764;9.172;2022-08-04T02:34:42;3.13;;;2.80;;
757;SDS011;363;48.764;9.172;2022-08-04T02:37:12;4.30;;;3.33;;
757;SDS011;363;48.764;9.172;2022-08-04T02:39:42;3.17;;;2.87;;
757;SDS011;363;48.764;9.172;2022-08-04T02:42:10;3.20;;;2.97;;
757;SDS011;363;48.764;9.172;2022-08-04T02:44:36;3.60;;;3.20;;
757;SDS011;363;48.764;9.172;2022-08-04T02:47:03;3.33;;;2.90;;
757;SDS011;363;48.764;9.172;2022-08-04T02:49:30;3.23;;;2.93;;
757;SDS011;363;48.764;9.172;2022-08-04T02:52:00;2.90;;;2.70;;
757;SDS011;363;48.764;9.172;2022-08-04T02:54:27;3.77;;;2.90;;
757;SDS011;363;48.764;9.172;2022-08-04T02:56:57;3.65;;;3.40;;
757;SDS011;363;48.764;9.172;2022-08-04T02:59:25;4.03;;;3.30;;
757;SDS011;363;48.764;9.172;2022-08-04T03:01:55;3.50;;;3.17;;
757;SDS011;363;48.764;9.172;2022-08-04T03:09:38;3.50;;;3.20;;
757;SDS011;363;48.764;9.172;2022-08-04T03:31:26;3.60;;;3.30;;
757;SDS011;363;48.764;9.172;2022-08-04T03:34:23;3.47;;;3.20;;
757;SDS011;363;48.764;9.172;2022-08-04T03:40:33;3.43;;;3.13;;
757;SDS011;363;48.764;9.172;2022-08-04T03:49:17;3.60;;;3.30;;
757;SDS011;363;48.764;9.172;2022-08-04T03:52:24;3.80;;;3.50;;
757;SDS011;363;48.764;9.172;2022-08-04T04:06:39;3.22;;;3.03;;
757;SDS011;363;48.764;9.172;2022-08-04T04:20:24;3.88;;;3.10;;
757;SDS011;363;48.764;9.172;2022-08-04T04:28:37;3.43;;;3.13;;
757;SDS011;363;48.764;9.172;2022-08-04T04:37:35;3.30;;;3.10;;
757;SDS011;363;48.764;9.172;2022-08-04T04:40:27;3.20;;;3.00;;
757;SDS011;363;48.764;9.172;2022-08-04T04:48:53;5.13;;;2.77;;
757;SDS011;363;48.764;9.172;2022-08-04T04:51:30;2.97;;;2.77;;
757;SDS011;363;48.764;9.172;2022-08-04T04:54:03;8.10;;;3.17;;
757;SDS011;363;48.764;9.172;2022-08-04T04:59:26;3.30;;;3.00;;
757;SDS011;363;48.764;9.172;2022-08-04T05:13:33;4.77;;;3.47;;
757;SDS011;363;48.764;9.172;2022-08-04T05:16:08;5.97;;;3.27;;
757;SDS011;363;48.764;9.172;2022-08-04T05:18:56;3.33;;;2.97;;
757;SDS011;363;48.764;9.172;2022-08-04T05:21:42;4.27;;;3.60;;
757;SDS011;363;48.764;9.172;2022-08-04T05:24:13;3.37;;;3.17;;
757;SDS011;363;48.764;9.172;2022-08-04T05:26:49;3.50;;;3.30;;
757;SDS011;363;48.764;9.172;2022-08-04T05:29:39;4.40;;;3.07;;
757;SDS011;363;48.764;9.172;2022-08-04T05:32:14;4.80;;;3.13;;
757;SDS011;363;48.764;9.172;2022-08-04T05:34:42;2.93;;;2.73;;
757;SDS011;363;48.764;9.172;2022-08-04T05:37:16;3.47;;;3.20;;
757;SDS011;363;48.764;9.172;2022-08-04T05:39:45;4.53;;;3.23;;
757;SDS011;363;48.764;9.172;2022-08-04T05:42:17;6.20;;;3.13;;
757;SDS011;363;48.764;9.172;2022-08-04T05:44:43;3.10;;;2.90;;
757;SDS011;363;48.764;9.172;2022-08-04T05:47:10;5.20;;;4.40;;
757;SDS011;363;48.764;9.172;2022-08-04T05:49:37;4.17;;;3.80;;
757;SDS011;363;48.764;9.172;2022-08-04T05:52:05;4.23;;;3.07;;
757;SDS011;363;48.764;9.172;2022-08-04T05:54:31;3.70;;;3.40;;
757;SDS011;363;48.764;9.172;2022-08-04T05:56:59;4.53;;;4.13;;
757;SDS011;363;48.764;9.172;2022-08-04T05:59:28;3.43;;;3.13;;
757;SDS011;363;48.764;9.172;2022-08-04T06:01:56;3.10;;;2.90;;
757;SDS011;363;48.764;9.172;2022-08-04T06:04:25;4.73;;;4.40;;
757;SDS011;363;48.764;9.172;2022-08-04T06:06:55;6.40;;;3.70;;
757;SDS011;363;48.764;9.172;2022-08-04T06:09:21;6.73;;;3.50;;
757;SDS011;363;48.764;9.172;2022-08-04T06:11:47;5.10;;;3.60;;
757;SDS011;363;48.764;9.172;2022-08-04T06:14:15;4.20;;;3.00;;
757;SDS011;363;48.764;9.172;2022-08-04T06:16:42;3.47;;;3.20;;
757;SDS011;363;48.764;9.172;2022-08-04T06:19:10;5.13;;;3.20;;
757;SDS011;363;48.764;9.172;2022-08-04T06:21:38;4.50;;;3.23;;
757;SDS011;363;48.764;9.172;2022-08-04T06:24:08;3.87;;;3.43;;
757;SDS011;363;48.764;9.172;2022-08-04T06:26:36;4.13;;;3.73;;
757;SDS011;363;48.764;9.172;2022-08-04T06:29:04;4.13;;;3.30;;
757;SDS011;363;48.764;9.172;2022-08-04T06:31:40;4.23;;;3.57;;
757;SDS011;363;48.764;9.172;2022-08-04T06:34:11;3.17;;;2.97;;
757;SDS011;363;48.764;9.172;2022-08-04T06:36:38;5.27;;;3.70;;
757;SDS011;363;48.764;9.172;2022-08-04T06:39:06;3.30;;;3.00;;
757;SDS011;363;48.764;9.172;2022-08-04T06:41:34;3.77;;;2.87;;
757;SDS011;363;48.764;9.172;2022-08-04T06:44:04;5.87;;;3.20;;
757;SDS011;363;48.764;9.172;2022-08-04T06:46:33;4.33;;;3.60;;
757;SDS011;363;48.764;9.172;2022-08-04T06:49:01;3.40;;;3.10;;
757;SDS011;363;48.764;9.172;2022-08-04T06:51:28;3.60;;;3.30;;
757;SDS011;363;48.764;9.172;2022-08-04T06:53:55;4.47;;;3.47;;
757;SDS011;363;48.764;9.172;2022-08-04T06:56:21;4.37;;;3.10;;
757;SDS011;363;48.764;9.172;2022-08-04T06:58:49;6.60;;;3.37;;
757;SDS011;363;48.764;9.172;2022-08-04T07:01:17;5.20;;;3.47;;
757;SDS011;363;48.764;9.172;2022-08-04T07:03:44;3.87;;;3.30;;
757;SDS011;363;48.764;9.172;2022-08-04T07:06:10;4.47;;;3.57;;
757;SDS011;363;48.764;9.172;2022-08-04T07:08:36;3.87;;;2.90;;
757;SDS011;363;48.764;9.172;2022-08-04T07:11:02;3.17;;;2.87;;
757;SDS011;363;48.764;9.172;2022-08-04T07:13:29;3.30;;;3.00;;
757;SDS011;363;48.764;9.172;2022-08-04T07:15:55;3.50;;;2.97;;
757;SDS011;363;48.764;9.172;2022-08-04T07:18:23;3.70;;;3.00;;
757;SDS011;363;48.764;9.172;2022-08-04T07:20:49;3.43;;;3.20;;
757;SDS011;363;48.764;9.172;2022-08-04T07:23:15;5.20;;;3.70;;
757;SDS011;363;48.764;9.172;2022-08-04T07:25:50;4.00;;;3.70;;
757;SDS011;363;48.764;9.172;2022-08-04T07:28:17;6.20;;;3.50;;
757;SDS011;363;48.764;9.172;2022-08-04T07:30:44;3.33;;;2.90;;
757;SDS011;363;48.764;9.172;2022-08-04T07:33:11;2.80;;;2.60;;
757;SDS011;363;48.764;9.172;2022-08-04T07:35:37;5.30;;;3.00;;
757;SDS011;363;48.764;9.172;2022-08-04T07:38:03;8.33;;;7.53;;
757;SDS011;363;48.764;9.172;2022-08-04T07:40:29;4.33;;;3.90;;
757;SDS011;363;48.764;9.172;2022-08-04T07:42:56;3.37;;;3.17;;
757;SDS011;363;48.764;9.172;2022-08-04T07:45:23;4.27;;;3.00;;
757;SDS011;363;48.764;9.172;2022-08-04T07:47:49;9.70;;;3.30;;
757;SDS011;363;48.764;9.172;2022-08-04T07:50:15;4.20;;;3.27;;
757;SDS011;363;48.764;9.172;2022-08-04T07:52:41;3.50;;;3.30;;
757;SDS011;363;48.764;9.172;2022-08-04T07:55:09;3.90;;;2.50;;
757;SDS011;363;48.764;9.172;2022-08-04T07:57:35;3.00;;;2.70;;
757;SDS011;363;48.764;9.172;2022-08-04T08:00:03;3.87;;;3.27;;
757;SDS011;363;48.764;9.172;2022-08-04T08:02:29;3.10;;;2.90;;
757;SDS011;363;48.764;9.172;2022-08-04T08:04:55;2.90;;;2.60;;
757;SDS011;363;48.764;9.172;2022-08-04T08:07:21;5.20;;;2.80;;
757;SDS011;363;48.764;9.172;2022-08-04T08:09:47;3.00;;;2.80;;
757;SDS011;363;48.764;9.172;2022-08-04T08:12:12;3.30;;;3.00;;
757;SDS011;363;48.764;9.172;2022-08-04T08:14:38;3.97;;;2.80;;
757;SDS011;363;48.764;9.172;2022-08-04T08:17:05;3.63;;;3.03;;
757;SDS011;363;48.764;9.172;2022-08-04T08:19:31;2.90;;;2.70;;
757;SDS011;363;48.764;9.172;2022-08-04T08:21:58;5.47;;;3.40;;
757;SDS011;363;48.764;9.172;2022-08-04T08:24:24;5.83;;;3.00;;
757;SDS011;363;48.764;9.172;2022-08-04T08:26:50;5.27;;;2.90;;
757;SDS011;363;48.764;9.172;2022-08-04T08:29:16;4.17;;;3.30;;
757;SDS011;363;48.764;9.172;2022-08-04T08:31:43;2.80;;;2.60;;
757;SDS011;363;48.764;9.172;2022-08-04T08:34:09;5.90;;;3.50;;
757;SDS011;363;48.764;9.172;2022-08-04T08:47:08;7.20;;;3.13;;
757;SDS011;363;48.764;9.172;2022-08-04T09:09:57;2.87;;;2.70;;
757;SDS011;363;48.764;9.172;2022-08-04T09:18:40;3.60;;;3.00;;
757;SDS011;363;48.764;9.172;2022-08-04T09:27:17;3.17;;;2.87;;
757;SDS011;363;48.764;9.172;2022-08-04T09:32:35;3.13;;;2.80;;
757;SDS011;363;48.764;9.172;2022-08-04T09:35:19;3.57;;;3.37;;
757;SDS011;363;48.764;9.172;2022-08-04T09:46:41;3.20;;;3.00;;
757;SDS011;363;48.764;9.172;2022-08-04T10:02:40;3.10;;;2.67;;
757;SDS011;363;48.764;9.172;2022-08-04T10:05:13;2.70;;;2.50;;
757;SDS011;363;48.764;9.172;2022-08-04T10:07:44;2.90;;;2.70;;
757;SDS011;363;48.764;9.172;2022-08-04T10:10:34;3.50;;;3.20;;
757;SDS011;363;48.764;9.172;2022-08-04T10:27:33;3.20;;;2.93;;
757;SDS011;363;48.764;9.172;2022-08-04T10:30:05;2.60;;;2.40;;
757;SDS011;363;48.764;9.172;2022-08-04T10:32:44;2.97;;;2.77;;
757;SDS011;363;48.764;9.172;2022-08-04T10:35:22;3.67;;;3.37;;
757;SDS011;363;48.764;9.172;2022-08-04T10:41:00;3.10;;;2.90;;
757;SDS011;363;48.764;9.172;2022-08-04T10:46:23;2.80;;;2.60;;
757;SDS011;363;48.764;9.172;2022-08-04T10:49:03;2.80;;;2.60;;
757;SDS011;363;48.764;9.172;2022-08-04T11:00:05;3.10;;;2.77;;
757;SDS011;363;48.764;9.172;2022-08-04T11:02:40;3.57;;;3.27;;
757;SDS011;363;48.764;9.172;2022-08-04T11:08:00;3.00;;;2.90;;
757;SDS011;363;48.764;9.172;2022-08-04T11:10:32;3.00;;;2.80;;
757;SDS011;363;48.764;9.172;2022-08-04T11:13:04;3.37;;;3.07;;
757;SDS011;363;48.764;9.172;2022-08-04T11:15:38;2.70;;;2.47;;
757;SDS011;363;48.764;9.172;2022-08-04T11:19:15;4.17;;;2.97;;
757;SDS011;363;48.764;9.172;2022-08-04T11:21:27;3.00;;;2.80;;
757;SDS011;363;48.764;9.172;2022-08-04T11:24:08;2.97;;;2.43;;
757;SDS011;363;48.764;9.172;2022-08-04T11:26:43;3.47;;;2.73;;
757;SDS011;363;48.764;9.172;2022-08-04T11:29:16;3.00;;;2.80;;
757;SDS011;363;48.764;9.172;2022-08-04T11:31:46;2.93;;;2.60;;
757;SDS011;363;48.764;9.172;2022-08-04T11:34:17;3.87;;;3.57;;
757;SDS011;363;48.764;9.172;2022-08-04T11:37:12;2.90;;;2.70;;
757;SDS011;363;48.764;9.172;2022-08-04T11:39:52;2.77;;;2.57;;
757;SDS011;363;48.764;9.172;2022-08-04T11:42:36;2.60;;;2.40;;
757;SDS011;363;48.764;9.172;2022-08-04T11:45:12;3.00;;;2.80;;
757;SDS011;363;48.764;9.172;2022-08-04T11:47:47;3.03;;;2.57;;
757;SDS011;363;48.764;9.172;2022-08-04T11:50:20;3.37;;;2.60;;
757;SDS011;363;48.764;9.172;2022-08-04T11:52:51;3.00;;;2.70;;
757;SDS011;363;48.764;9.172;2022-08-04T11:55:18;3.60;;;2.83;;
757;SDS011;363;48.764;9.172;2022-08-04T11:57:46;2.57;;;2.37;;
757;SDS011;363;48.764;9.172;2022-08-04T12:00:13;2.77;;;2.57;;
757;SDS011;363;48.764;9.172;2022-08-04T12:02:48;4.17;;;2.30;;
757;SDS011;363;48.764;9.172;2022-08-04T12:05:30;2.77;;;2.50;;
757;SDS011;363;48.764;9.172;2022-08-04T12:08:02;3.10;;;2.90;;
757;SDS011;363;48.764;9.172;2022-08-04T12:11:08;4.00;;;3.70;;
757;SDS011;363;48.764;9.172;2022-08-04T12:13:54;4.60;;;3.30;;
757;SDS011;363;48.764;9.172;2022-08-04T12:19:03;5.53;;;3.53;;
757;SDS011;363;48.764;9.172;2022-08-04T12:21:41;9.23;;;5.00;;
757;SDS011;363;48.764;9.172;2022-08-04T12:26:57;5.73;;;3.50;;
757;SDS011;363;48.764;9.172;2022-08-04T12:29:31;3.77;;;3.47;;
757;SDS011;363;48.764;9.172;2022-08-04T12:32:02;3.47;;;3.17;;
757;SDS011;363;48.764;9.172;2022-08-04T12:34:42;3.70;;;3.03;;
757;SDS011;363;48.764;9.172;2022-08-04T12:37:32;3.10;;;2.80;;
757;SDS011;363;48.764;9.172;2022-08-04T12:40:07;3.13;;;2.93;;
757;SDS011;363;48.764;9.172;2022-08-04T12:42:43;3.23;;;3.03;;
757;SDS011;363;48.764;9.172;2022-08-04T12:45:14;3.47;;;3.20;;
757;SDS011;363;48.764;9.172;2022-08-04T12:47:41;3.40;;;3.20;;
757;SDS011;363;48.764;9.172;2022-08-04T12:50:12;3.00;;;2.80;;
757;SDS011;363;48.764;9.172;2022-08-04T12:52:43;3.30;;;2.93;;
757;SDS011;363;48.764;9.172;2022-08-04T12:55:17;3.20;;;3.00;;
757;SDS011;363;48.764;9.172;2022-08-04T12:57:46;3.23;;;2.90;;
757;SDS011;363;48.764;9.172;2022-08-04T13:00:21;3.60;;;3.30;;
757;SDS011;363;48.764;9.172;2022-08-04T13:02:53;4.13;;;2.90;;
757;SDS011;363;48.764;9.172;2022-08-04T13:05:23;7.50;;;2.90;;
757;SDS011;363;48.764;9.172;2022-08-04T13:07:51;3.20;;;2.83;;
757;SDS011;363;48.764;9.172;2022-08-04T13:10:19;3.00;;;2.80;;
757;SDS011;363;48.764;9.172;2022-08-04T13:12:55;3.13;;;2.93;;
757;SDS011;363;48.764;9.172;2022-08-04T13:15:23;3.70;;;3.20;;
757;SDS011;363;48.764;9.172;2022-08-04T13:17:58;3.20;;;3.00;;
757;SDS011;363;48.764;9.172;2022-08-04T13:20:30;3.10;;;2.90;;
757;SDS011;363;48.764;9.172;2022-08-04T13:23:05;3.37;;;3.07;;
757;SDS011;363;48.764;9.172;2022-08-04T13:25:33;3.87;;;3.50;;
757;SDS011;363;48.764;9.172;2022-08-04T13:28:04;3.97;;;3.60;;
757;SDS011;363;48.764;9.172;2022-08-04T13:30:30;5.20;;;4.77;;
757;SDS011;363;48.764;9.172;2022-08-04T13:32:59;3.63;;;3.37;;
757;SDS011;363;48.764;9.172;2022-08-04T13:35:27;3.97;;;3.10;;
757;SDS011;363;48.764;9.172;2022-08-04T13:37:56;3.63;;;3.37;;
757;SDS011;363;48.764;9.172;2022-08-04T13:40:24;3.07;;;2.87;;
757;SDS011;363;48.764;9.172;2022-08-04T13:42:51;2.73;;;2.60;;
757;SDS011;363;48.764;9.172;2022-08-04T13:45:19;3.83;;;3.57;;
757;SDS011;363;48.764;9.172;2022-08-04T13:47:47;3.50;;;3.30;;
757;SDS011;363;48.764;9.172;2022-08-04T13:50:17;3.17;;;2.97;;
757;SDS011;363;48.764;9.172;2022-08-04T13:52:51;3.47;;;3.20;;
757;SDS011;363;48.764;9.172;2022-08-04T13:57:58;4.40;;;4.00;;
757;SDS011;363;48.764;9.172;2022-08-04T14:01:21;3.83;;;3.53;;
757;SDS011;363;48.764;9.172;2022-08-04T14:03:32;2.93;;;2.73;;
757;SDS011;363;48.764;9.172;2022-08-04T14:08:50;3.30;;;3.10;;
757;SDS011;363;48.764;9.172;2022-08-04T14:11:19;3.60;;;3.30;;
757;SDS011;363;48.764;9.172;2022-08-04T14:13:47;3.20;;;3.00;;
757;SDS011;363;48.764;9.172;2022-08-04T14:16:13;5.00;;;4.70;;
757;SDS011;363;48.764;9.172;2022-08-04T14:18:44;5.50;;;5.10;;
757;SDS011;363;48.764;9.172;2022-08-04T14:21:12;5.93;;;5.53;;
757;SDS011;363;48.764;9.172;2022-08-04T14:28:43;7.57;;;7.07;;
757;SDS011;363;48.764;9.172;2022-08-04T14:31:11;4.00;;;3.70;;
757;SDS011;363;48.764;9.172;2022-08-04T14:33:39;3.80;;;3.50;;
757;SDS011;363;48.764;9.172;2022-08-04T14:36:06;4.07;;;3.33;;
757;SDS011;363;48.764;9.172;2022-08-04T14:38:43;3.30;;;3.00;;
757;SDS011;363;48.764;9.172;2022-08-04T14:41:11;3.30;;;3.00;;
757;SDS011;363;48.764;9.172;2022-08-04T14:43:44;4.23;;;3.80;;
757;SDS011;363;48.764;9.172;2022-08-04T14:46:15;6.37;;;5.13;;
757;SDS011;363;48.764;9.172;2022-08-04T14:49:01;4.43;;;4.10;;
757;SDS011;363;48.764;9.172;2022-08-04T14:51:34;3.60;;;3.30;;
757;SDS011;363;48.764;9.172;2022-08-04T14:54:02;5.00;;;4.60;;
757;SDS011;363;48.764;9.172;2022-08-04T14:56:29;6.03;;;4.23;;
757;SDS011;363;48.764;9.172;2022-08-04T14:59:01;3.43;;;3.13;;
757;SDS011;363;48.764;9.172;2022-08-04T15:01:29;3.40;;;3.20;;
757;SDS011;363;48.764;9.172;2022-08-04T15:03:56;3.87;;;3.53;;
757;SDS011;363;48.764;9.172;2022-08-04T15:06:26;4.17;;;3.40;;
757;SDS011;363;48.764;9.172;2022-08-04T15:08:53;3.40;;;3.20;;
757;SDS011;363;48.764;9.172;2022-08-04T15:11:21;5.53;;;4.70;;
757;SDS011;363;48.764;9.172;2022-08-04T15:13:51;3.37;;;3.07;;
757;SDS011;363;48.764;9.172;2022-08-04T15:16:18;3.77;;;3.47;;
757;SDS011;363;48.764;9.172;2022-08-04T15:18:48;3.77;;;3.40;;
757;SDS011;363;48.764;9.172;2022-08-04T15:21:15;4.47;;;3.20;;
757;SDS011;363;48.764;9.172;2022-08-04T15:23:41;3.90;;;3.40;;
757;SDS011;363;48.764;9.172;2022-08-04T15:26:08;4.20;;;3.80;;
757;SDS011;363;48.764;9.172;2022-08-04T15:28:40;4.80;;;4.20;;
757;SDS011;363;48.764;9.172;2022-08-04T15:31:11;3.33;;;3.13;;
757;SDS011;363;48.764;9.172;2022-08-04T15:33:39;4.07;;;3.80;;
757;SDS011;363;48.764;9.172;2022-08-04T15:36:14;3.53;;;3.33;;
757;SDS011;363;48.764;9.172;2022-08-04T15:39:02;3.83;;;3.50;;
757;SDS011;363;48.764;9.172;2022-08-04T15:41:36;3.87;;;3.63;;
757;SDS011;363;48.764;9.172;2022-08-04T15:47:11;3.40;;;3.20;;
757;SDS011;363;48.764;9.172;2022-08-04T15:49:39;2.90;;;2.70;;
757;SDS011;363;48.764;9.172;2022-08-04T15:52:11;3.60;;;3.30;;
757;SDS011;363;48.764;9.172;2022-08-04T15:54:42;3.80;;;3.50;;
757;SDS011;363;48.764;9.172;2022-08-04T15:57:08;4.17;;;3.10;;
757;SDS011;363;48.764;9.172;2022-08-04T16:05:41;3.37;;;3.00;;
757;SDS011;363;48.764;9.172;2022-08-04T16:07:52;3.60;;;3.30;;
757;SDS011;363;48.764;9.172;2022-08-04T16:13:05;3.10;;;2.90;;
757;SDS011;363;48.764;9.172;2022-08-04T16:20:44;3.30;;;3.10;;
757;SDS011;363;48.764;9.172;2022-08-04T16:26:13;3.20;;;3.00;;
757;SDS011;363;48.764;9.172;2022-08-04T16:28:59;4.10;;;3.70;;
757;SDS011;363;48.764;9.172;2022-08-04T16:31:24;3.63;;;3.33;;
757;SDS011;363;48.764;9.172;2022-08-04T16:33:50;4.57;;;3.10;;
757;SDS011;363;48.764;9.172;2022-08-04T16:36:53;3.60;;;3.20;;
757;SDS011;363;48.764;9.172;2022-08-04T16:39:20;3.53;;;3.23;;
757;SDS011;363;48.764;9.172;2022-08-04T16:41:46;3.60;;;3.40;;
757;SDS011;363;48.764;9.172;2022-08-04T16:44:27;3.60;;;3.30;;
757;SDS011;363;48.764;9.172;2022-08-04T16:46:57;3.90;;;3.60;;
757;SDS011;363;48.764;9.172;2022-08-04T16:49:23;3.70;;;3.40;;
757;SDS011;363;48.764;9.172;2022-08-04T16:51:53;3.80;;;3.50;;
757;SDS011;363;48.764;9.172;2022-08-04T16:54:27;3.60;;;3.30;;
757;SDS011;363;48.764;9.172;2022-08-04T16:56:59;3.60;;;3.40;;
757;SDS011;363;48.764;9.172;2022-08-04T16:59:25;3.80;;;3.40;;
757;SDS011;363;48.764;9.172;2022-08-04T17:01:52;3.50;;;3.30;;
757;SDS011;363;48.764;9.172;2022-08-04T17:04:32;3.83;;;3.53;;
757;SDS011;363;48.764;9.172;2022-08-04T17:06:59;3.50;;;3.30;;
757;SDS011;363;48.764;9.172;2022-08-04T17:09:27;4.00;;;3.20;;
757;SDS011;363;48.764;9.172;2022-08-04T17:11:53;3.53;;;3.23;;
757;SDS011;363;48.764;9.172;2022-08-04T17:14:25;3.20;;;2.97;;
757;SDS011;363;48.764;9.172;2022-08-04T17:16:56;3.83;;;3.07;;
757;SDS011;363;48.764;9.172;2022-08-04T17:19:24;3.37;;;3.00;;
757;SDS011;363;48.764;9.172;2022-08-04T17:21:50;3.80;;;3.30;;
757;SDS011;363;48.764;9.172;2022-08-04T17:24:16;3.50;;;3.30;;
757;SDS011;363;48.764;9.172;2022-08-04T17:26:42;3.00;;;2.80;;
757;SDS011;363;48.764;9.172;2022-08-04T17:29:09;3.93;;;3.60;;
757;SDS011;363;48.764;9.172;2022-08-04T17:31:35;4.47;;;4.07;;
757;SDS011;363;48.764;9.172;2022-08-04T17:34:07;3.23;;;3.03;;
757;SDS011;363;48.764;9.172;2022-08-04T17:36:36;3.50;;;3.20;;
757;SDS011;363;48.764;9.172;2022-08-04T17:39:09;3.40;;;3.10;;
757;SDS011;363;48.764;9.172;2022-08-04T17:41:37;3.63;;;3.33;;
757;SDS011;363;48.764;9.172;2022-08-04T17:44:03;3.97;;;3.57;;
757;SDS011;363;48.764;9.172;2022-08-04T17:46:43;3.73;;;3.47;;
757;SDS011;363;48.764;9.172;2022-08-04T17:51:40;3.53;;;3.23;;
757;SDS011;363;48.764;9.172;2022-08-04T17:54:16;3.40;;;3.20;;
757;SDS011;363;48.764;9.172;2022-08-04T17:56:43;4.00;;;3.20;;
757;SDS011;363;48.764;9.172;2022-08-04T17:59:20;4.60;;;4.30;;
757;SDS011;363;48.764;9.172;2022-08-04T18:04:21;5.20;;;4.70;;
757;SDS011;363;48.764;9.172;2022-08-04T18:06:54;4.30;;;4.00;;
757;SDS011;363;48.764;9.172;2022-08-04T18:09:32;4.13;;;3.83;;
757;SDS011;363;48.764;9.172;2022-08-04T18:11:59;4.83;;;4.30;;
757;SDS011;363;48.764;9.172;2022-08-04T18:14:40;4.70;;;4.13;;
757;SDS011;363;48.764;9.172;2022-08-04T18:17:08;4.60;;;4.20;;
757;SDS011;363;48.764;9.172;2022-08-04T18:19:34;4.60;;;3.90;;
757;SDS011;363;48.764;9.172;2022-08-04T18:22:01;4.30;;;4.00;;
757;SDS011;363;48.764;9.172;2022-08-04T18:24:28;4.83;;;4.43;;
757;SDS011;363;48.764;9.172;2022-08-04T18:26:55;4.30;;;4.00;;
757;SDS011;363;48.764;9.172;2022-08-04T18:29:20;4.47;;;4.17;;
757;SDS011;363;48.764;9.172;2022-08-04T18:31:46;4.40;;;3.97;;
757;SDS011;363;48.764;9.172;2022-08-04T18:34:11;4.73;;;4.33;;
757;SDS011;363;48.764;9.172;2022-08-04T18:36:37;6.40;;;5.70;;
757;SDS011;363;48.764;9.172;2022-08-04T18:39:04;6.33;;;5.73;;
757;SDS011;363;48.764;9.172;2022-08-04T18:41:30;6.10;;;5.40;;
757;SDS011;363;48.764;9.172;2022-08-04T18:43:56;5.83;;;5.33;;
757;SDS011;363;48.764;9.172;2022-08-04T18:46:22;6.50;;;6.07;;
757;SDS011;363;48.764;9.172;2022-08-04T18:48:48;7.60;;;6.83;;
757;SDS011;363;48.764;9.172;2022-08-04T18:51:14;6.53;;;5.93;;
757;SDS011;363;48.764;9.172;2022-08-04T18:53:42;8.07;;;6.40;;
757;SDS011;363;48.764;9.172;2022-08-04T18:56:12;6.97;;;6.37;;
757;SDS011;363;48.764;9.172;2022-08-04T18:58:38;6.67;;;6.07;;
757;SDS011;363;48.764;9.172;2022-08-04T19:01:04;8.20;;;7.17;;
757;SDS011;363;48.764;9.172;2022-08-04T19:03:32;6.70;;;6.20;;
757;SDS011;363;48.764;9.172;2022-08-04T19:05:58;6.70;;;6.00;;
757;SDS011;363;48.764;9.172;2022-08-04T19:08:24;8.53;;;7.43;;
757;SDS011;363;48.764;9.172;2022-08-04T19:10:50;9.07;;;8.13;;
757;SDS011;363;48.764;9.172;2022-08-04T19:13:16;6.60;;;6.10;;
757;SDS011;363;48.764;9.172;2022-08-04T19:15:41;6.00;;;5.50;;
757;SDS011;363;48.764;9.172;2022-08-04T19:18:07;6.60;;;6.10;;
757;SDS011;363;48.764;9.172;2022-08-04T19:20:32;5.70;;;5.17;;
757;SDS011;363;48.764;9.172;2022-08-04T19:22:58;6.60;;;6.00;;
757;SDS011;363;48.764;9.172;2022-08-04T19:25:24;5.23;;;4.80;;
757;SDS011;363;48.764;9.172;2022-08-04T19:27:49;6.10;;;5.60;;
757;SDS011;363;48.764;9.172;2022-08-04T19:30:15;5.97;;;5.40;;
757;SDS011;363;48.764;9.172;2022-08-04T19:32:41;6.33;;;5.83;;
757;SDS011;363;48.764;9.172;2022-08-04T19:35:06;6.30;;;5.90;;
757;SDS011;363;48.764;9.172;2022-08-04T19:37:32;5.47;;;5.03;;
757;SDS011;363;48.764;9.172;2022-08-04T19:39:57;5.43;;;4.93;;
757;SDS011;363;48.764;9.172;2022-08-04T19:42:23;5.00;;;4.60;;
757;SDS011;363;48.764;9.172;2022-08-04T19:44:48;5.30;;;4.60;;
757;SDS011;363;48.764;9.172;2022-08-04T19:47:14;5.43;;;4.93;;
757;SDS011;363;48.764;9.172;2022-08-04T19:49:40;4.80;;;4.40;;
757;SDS011;363;48.764;9.172;2022-08-04T19:52:05;5.67;;;5.17;;
757;SDS011;363;48.764;9.172;2022-08-04T19:54:31;5.67;;;5.17;;
757;SDS011;363;48.764;9.172;2022-08-04T19:56:57;5.70;;;5.30;;
757;SDS011;363;48.764;9.172;2022-08-04T19:59:23;4.97;;;4.53;;
757;SDS011;363;48.764;9.172;2022-08-04T20:01:48;5.40;;;5.00;;
757;SDS011;363;48.764;9.172;2022-08-04T20:04:14;5.83;;;4.67;;
757;SDS011;363;48.764;9.172;2022-08-04T20:06:40;7.23;;;5.10;;
757;SDS011;363;48.764;9.172;2022-08-04T20:09:06;5.30;;;4.83;;
757;SDS011;363;48.764;9.172;2022-08-04T20:11:32;4.63;;;4.23;;
757;SDS011;363;48.764;9.172;2022-08-04T20:13:58;4.53;;;4.23;;
757;SDS011;363;48.764;9.172;2022-08-04T20:16:23;4.97;;;4.67;;
757;SDS011;363;48.764;9.172;2022-08-04T20:18:49;5.27;;;4.40;;
757;SDS011;363;48.764;9.172;2022-08-04T20:21:14;4.77;;;4.37;;
757;SDS011;363;48.764;9.172;2022-08-04T20:23:40;6.30;;;4.97;;
757;SDS011;363;48.764;9.172;2022-08-04T20:26:06;6.37;;;4.87;;
757;SDS011;363;48.764;9.172;2022-08-04T20:28:33;6.57;;;5.90;;
757;SDS011;363;48.764;9.172;2022-08-04T20:30:59;5.17;;;4.77;;